sensor_id;sensor_type;location;lat;lon;timestamp;pressure;altitude;pressure_sealevel;temperature;humidity
11888;BME280;6003;42.756;23.130;2023-08-06T00:00:39;157156.06;;;18.37;100.00
11888;BME280;6003;42.756;23.130;2023-08-06T00:03:06;157150.75;;;18.35;100.00
11888;BME280;6003;42.756;23.130;2023-08-06T00:05:33;157130.81;;;18.27;100.00
11888;BME280;6003;42.756;23.130;2023-08-06T00:08:00;157105.53;;;18.18;100.00
11888;BME280;6003;42.756;23.130;2023-08-06T00:10:27;157117.53;;;18.22;100.00
11888;BME280;6003;42.756;23.130;2023-08-06T00:12:54;157121.50;;;18.24;100.00
11888;BME280;6003;42.756;23.130;2023-08-06T00:15:22;157121.50;;;18.24;100.00
11888;BME280;6003;42.756;23.130;2023-08-06T00:17:50;157140.13;;;18.31;100.00
11888;BME280;6003;42.756;23.130;2023-08-06T00:20:17;157137.50;;;18.30;100.00
11888;BME280;6003;42.756;23.130;2023-08-06T00:22:44;157133.47;;;18.29;100.00
11888;BME280;6003;42.756;23.130;2023-08-06T00:25:10;157142.75;;;18.32;100.00
11888;BME280;6003;42.756;23.130;2023-08-06T00:27:37;157153.44;;;18.36;100.00
11888;BME280;6003;42.756;23.130;2023-08-06T00:30:05;157148.09;;;18.34;100.00
11888;BME280;6003;42.756;23.130;2023-08-06T00:32:32;157134.78;;;18.29;100.00
11888;BME280;6003;42.756;23.130;2023-08-06T00:35:00;157148.09;;;18.34;100.00
11888;BME280;6003;42.756;23.130;2023-08-06T00:37:28;157166.75;;;18.41;100.00
11888;BME280;6003;42.756;23.130;2023-08-06T00:39:55;157161.41;;;18.39;100.00
11888;BME280;6003;42.756;23.130;2023-08-06T00:42:22;157150.75;;;18.35;100.00
11888;BME280;6003;42.756;23.130;2023-08-06T00:44:49;157148.09;;;18.34;100.00
11888;BME280;6003;42.756;23.130;2023-08-06T00:47:15;157166.75;;;18.41;100.00
11888;BME280;6003;42.756;23.130;2023-08-06T00:49:43;157165.38;;;18.41;100.00
11888;BME280;6003;42.756;23.130;2023-08-06T00:52:11;157168.06;;;18.42;100.00
11888;BME280;6003;42.756;23.130;2023-08-06T00:54:39;157170.69;;;18.43;100.00
11888;BME280;6003;42.756;23.130;2023-08-06T00:57:07;157168.06;;;18.42;100.00
11888;BME280;6003;42.756;23.130;2023-08-06T00:59:34;157149.41;;;18.35;100.00
11888;BME280;6003;42.756;23.130;2023-08-06T01:02:02;157142.75;;;18.32;100.00
11888;BME280;6003;42.756;23.130;2023-08-06T01:04:28;157148.09;;;18.34;100.00
11888;BME280;6003;42.756;23.130;2023-08-06T01:07:12;157156.06;;;18.37;100.00
11888;BME280;6003;42.756;23.130;2023-08-06T01:09:53;157172.03;;;18.43;100.00
11888;BME280;6003;42.756;23.130;2023-08-06T01:12:30;157161.41;;;18.39;100.00
11888;BME280;6003;42.756;23.130;2023-08-06T01:15:06;157134.78;;;18.29;100.00
11888;BME280;6003;42.756;23.130;2023-08-06T01:17:35;157162.72;;;18.40;100.00
11888;BME280;6003;42.756;23.130;2023-08-06T01:20:03;157173.34;;;18.44;100.00
11888;BME280;6003;42.756;23.130;2023-08-06T01:22:31;157186.66;;;18.49;100.00
11888;BME280;6003;42.756;23.130;2023-08-06T01:24:58;157190.66;;;18.51;100.00
11888;BME280;6003;42.756;23.130;2023-08-06T01:27:28;157206.59;;;18.57;100.00
11888;BME280;6003;42.756;23.130;2023-08-06T01:30:03;157195.94;;;18.53;100.00
11888;BME280;6003;42.756;23.130;2023-08-06T01:32:31;157191.97;;;18.51;100.00
11888;BME280;6003;42.756;23.130;2023-08-06T01:35:02;157191.97;;;18.51;100.00
11888;BME280;6003;42.756;23.130;2023-08-06T01:37:31;157189.34;;;18.50;100.00
11888;BME280;6003;42.756;23.130;2023-08-06T01:39:58;157195.94;;;18.53;100.00
11888;BME280;6003;42.756;23.130;2023-08-06T01:42:25;157205.28;;;18.56;100.00
11888;BME280;6003;42.756;23.130;2023-08-06T01:44:52;157193.31;;;18.52;100.00
11888;BME280;6003;42.756;23.130;2023-08-06T01:47:19;157177.34;;;18.45;100.00
11888;BME280;6003;42.756;23.130;2023-08-06T01:49:46;157195.94;;;18.53;100.00
11888;BME280;6003;42.756;23.130;2023-08-06T01:52:13;157219.91;;;18.62;100.00
11888;BME280;6003;42.756;23.130;2023-08-06T01:54:43;157217.22;;;18.61;100.00
11888;BME280;6003;42.756;23.130;2023-08-06T01:57:10;157214.59;;;18.60;100.00
11888;BME280;6003;42.756;23.130;2023-08-06T01:59:37;157214.59;;;18.60;100.00
11888;BME280;6003;42.756;23.130;2023-08-06T02:02:04;157209.25;;;18.58;100.00
11888;BME280;6003;42.756;23.130;2023-08-06T02:04:31;157214.59;;;18.60;100.00
11888;BME280;6003;42.756;23.130;2023-08-06T02:06:58;157222.56;;;18.63;100.00
11888;BME280;6003;42.756;23.130;2023-08-06T02:09:25;157203.91;;;18.56;100.00
11888;BME280;6003;42.756;23.130;2023-08-06T02:11:53;157195.94;;;18.53;100.00
11888;BME280;6003;42.756;23.130;2023-08-06T02:14:19;157199.97;;;18.54;100.00
11888;BME280;6003;42.756;23.130;2023-08-06T02:16:46;157198.63;;;18.54;100.00
11888;BME280;6003;42.756;23.130;2023-08-06T02:19:13;157186.66;;;18.49;100.00
11888;BME280;6003;42.756;23.130;2023-08-06T02:21:40;157185.31;;;18.48;100.00
11888;BME280;6003;42.756;23.130;2023-08-06T02:24:07;157172.03;;;18.43;100.00
11888;BME280;6003;42.756;23.130;2023-08-06T02:26:34;157150.75;;;18.35;100.00
11888;BME280;6003;42.756;23.130;2023-08-06T02:29:02;157148.09;;;18.34;100.00
11888;BME280;6003;42.756;23.130;2023-08-06T02:31:29;157169.38;;;18.42;100.00
11888;BME280;6003;42.756;23.130;2023-08-06T02:33:55;157166.75;;;18.41;100.00
11888;BME280;6003;42.756;23.130;2023-08-06T02:36:24;157169.38;;;18.42;100.00
11888;BME280;6003;42.756;23.130;2023-08-06T02:38:54;157169.38;;;18.42;100.00
11888;BME280;6003;42.756;23.130;2023-08-06T02:41:21;157172.03;;;18.43;100.00
11888;BME280;6003;42.756;23.130;2023-08-06T02:43:50;157185.31;;;18.48;100.00
11888;BME280;6003;42.756;23.130;2023-08-06T02:46:18;157193.31;;;18.52;100.00
11888;BME280;6003;42.756;23.130;2023-08-06T02:48:45;157193.31;;;18.52;100.00
11888;BME280;6003;42.756;23.130;2023-08-06T02:51:12;157193.31;;;18.52;100.00
11888;BME280;6003;42.756;23.130;2023-08-06T02:53:38;157198.63;;;18.54;100.00
11888;BME280;6003;42.756;23.130;2023-08-06T02:56:05;157195.94;;;18.53;100.00
11888;BME280;6003;42.756;23.130;2023-08-06T02:58:32;157190.66;;;18.51;100.00
11888;BME280;6003;42.756;23.130;2023-08-06T03:01:00;157184.00;;;18.48;100.00
11888;BME280;6003;42.756;23.130;2023-08-06T03:03:29;157194.63;;;18.52;100.00
11888;BME280;6003;42.756;23.130;2023-08-06T03:05:56;157203.91;;;18.56;100.00
11888;BME280;6003;42.756;23.130;2023-08-06T03:08:23;157206.59;;;18.57;100.00
11888;BME280;6003;42.756;23.130;2023-08-06T03:10:50;157186.66;;;18.49;100.00
11888;BME280;6003;42.756;23.130;2023-08-06T03:13:18;157172.03;;;18.43;100.00
11888;BME280;6003;42.756;23.130;2023-08-06T03:15:51;157177.34;;;18.45;100.00
11888;BME280;6003;42.756;23.130;2023-08-06T03:18:18;157185.31;;;18.48;100.00
11888;BME280;6003;42.756;23.130;2023-08-06T03:20:47;157195.94;;;18.53;100.00
11888;BME280;6003;42.756;23.130;2023-08-06T03:23:14;157203.91;;;18.56;100.00
11888;BME280;6003;42.756;23.130;2023-08-06T03:25:41;157190.66;;;18.51;100.00
11888;BME280;6003;42.756;23.130;2023-08-06T03:28:07;157172.03;;;18.43;100.00
11888;BME280;6003;42.756;23.130;2023-08-06T03:30:34;157140.13;;;18.31;100.00
11888;BME280;6003;42.756;23.130;2023-08-06T03:33:02;157124.19;;;18.25;100.00
11888;BME280;6003;42.756;23.130;2023-08-06T03:35:29;157110.88;;;18.20;100.00
11888;BME280;6003;42.756;23.130;2023-08-06T03:37:57;157089.59;;;18.12;100.00
11888;BME280;6003;42.756;23.130;2023-08-06T03:40:24;157084.31;;;18.10;100.00
11888;BME280;6003;42.756;23.130;2023-08-06T03:42:51;157097.56;;;18.15;100.00
11888;BME280;6003;42.756;23.130;2023-08-06T03:45:18;157105.53;;;18.18;100.00
11888;BME280;6003;42.756;23.130;2023-08-06T03:47:44;157105.53;;;18.18;100.00
11888;BME280;6003;42.756;23.130;2023-08-06T03:50:11;157125.50;;;18.25;100.00
11888;BME280;6003;42.756;23.130;2023-08-06T03:52:40;157158.72;;;18.38;100.00
11888;BME280;6003;42.756;23.130;2023-08-06T03:55:09;157172.03;;;18.43;100.00
11888;BME280;6003;42.756;23.130;2023-08-06T03:57:35;157182.69;;;18.47;100.00
11888;BME280;6003;42.756;23.130;2023-08-06T04:00:03;157198.63;;;18.54;100.00
11888;BME280;6003;42.756;23.130;2023-08-06T04:02:30;157185.31;;;18.48;100.00
11888;BME280;6003;42.756;23.130;2023-08-06T04:04:57;157166.75;;;18.41;100.00
11888;BME280;6003;42.756;23.130;2023-08-06T04:07:24;157150.75;;;18.35;100.00
11888;BME280;6003;42.756;23.130;2023-08-06T04:09:53;157137.50;;;18.30;100.00
11888;BME280;6003;42.756;23.130;2023-08-06T04:12:22;157137.50;;;18.30;100.00
11888;BME280;6003;42.756;23.130;2023-08-06T04:14:50;157161.41;;;18.39;100.00
11888;BME280;6003;42.756;23.130;2023-08-06T04:17:17;157180.00;;;18.46;100.00
11888;BME280;6003;42.756;23.130;2023-08-06T04:19:46;157185.31;;;18.48;100.00
11888;BME280;6003;42.756;23.130;2023-08-06T04:22:14;157182.69;;;18.47;100.00
11888;BME280;6003;42.756;23.130;2023-08-06T04:24:41;157197.31;;;18.53;100.00
11888;BME280;6003;42.756;23.130;2023-08-06T04:27:08;157211.94;;;18.59;100.00
11888;BME280;6003;42.756;23.130;2023-08-06T04:29:37;157230.53;;;18.66;100.00
11888;BME280;6003;42.756;23.130;2023-08-06T04:32:06;157247.81;;;18.72;100.00
11888;BME280;6003;42.756;23.130;2023-08-06T04:34:33;157246.50;;;18.72;100.00
11888;BME280;6003;42.756;23.130;2023-08-06T04:37:00;157259.84;;;18.77;100.00
11888;BME280;6003;42.756;23.130;2023-08-06T04:39:27;157270.47;;;18.81;100.00
11888;BME280;6003;42.756;23.130;2023-08-06T04:41:55;157287.78;;;18.88;100.00
11888;BME280;6003;42.756;23.130;2023-08-06T04:44:22;157302.44;;;18.93;100.00
11888;BME280;6003;42.756;23.130;2023-08-06T04:46:50;157315.69;;;18.99;100.00
11888;BME280;6003;42.756;23.130;2023-08-06T04:49:17;157326.34;;;19.03;100.00
11888;BME280;6003;42.756;23.130;2023-08-06T04:51:44;157343.63;;;19.09;100.00
11888;BME280;6003;42.756;23.130;2023-08-06T04:54:10;157360.91;;;19.16;100.00
11888;BME280;6003;42.756;23.130;2023-08-06T04:56:37;157383.53;;;19.25;100.00
11888;BME280;6003;42.756;23.130;2023-08-06T04:59:04;157388.84;;;19.27;100.00
11888;BME280;6003;42.756;23.130;2023-08-06T05:01:31;157398.16;;;19.30;100.00
11888;BME280;6003;42.756;23.130;2023-08-06T05:03:59;157388.84;;;19.27;100.00
11888;BME280;6003;42.756;23.130;2023-08-06T05:06:26;157374.22;;;19.21;100.00
11888;BME280;6003;42.756;23.130;2023-08-06T05:08:53;157360.91;;;19.16;100.00
11888;BME280;6003;42.756;23.130;2023-08-06T05:11:19;157352.94;;;19.13;100.00
11888;BME280;6003;42.756;23.130;2023-08-06T05:13:46;157356.94;;;19.14;100.00
11888;BME280;6003;42.756;23.130;2023-08-06T05:16:13;157360.91;;;19.16;100.00
11888;BME280;6003;42.756;23.130;2023-08-06T05:18:40;157378.25;;;19.23;100.00
11888;BME280;6003;42.756;23.130;2023-08-06T05:21:08;157394.19;;;19.29;100.00
11888;BME280;6003;42.756;23.130;2023-08-06T05:23:35;157482.03;;;19.63;100.00
11888;BME280;6003;42.756;23.130;2023-08-06T05:26:02;157685.72;;;20.41;100.00
11888;BME280;6003;42.756;23.130;2023-08-06T05:28:29;157984.19;;;21.55;100.00
11888;BME280;6003;42.756;23.130;2023-08-06T05:30:55;158262.81;;;22.62;100.00
11888;BME280;6003;42.756;23.130;2023-08-06T05:33:22;158525.63;;;23.63;94.82
11888;BME280;6003;42.756;23.130;2023-08-06T05:35:49;158733.97;;;24.43;89.57
11888;BME280;6003;42.756;23.130;2023-08-06T05:38:17;158907.53;;;25.09;85.08
11888;BME280;6003;42.756;23.130;2023-08-06T05:40:44;159230.97;;;26.33;81.32
11888;BME280;6003;42.756;23.130;2023-08-06T05:43:11;159367.38;;;26.85;76.13
11888;BME280;6003;42.756;23.130;2023-08-06T05:45:38;159255.03;;;26.42;76.98
11888;BME280;6003;42.756;23.130;2023-08-06T05:48:04;159105.34;;;25.85;78.71
11888;BME280;6003;42.756;23.130;2023-08-06T05:50:31;159054.50;;;25.65;78.47
11888;BME280;6003;42.756;23.130;2023-08-06T05:52:58;158939.63;;;25.21;79.54
11888;BME280;6003;42.756;23.130;2023-08-06T05:55:26;158640.44;;;24.07;82.32
11888;BME280;6003;42.756;23.130;2023-08-06T05:57:53;158552.34;;;23.73;83.59
11888;BME280;6003;42.756;23.130;2023-08-06T06:00:22;158477.56;;;23.45;84.37
11888;BME280;6003;42.756;23.130;2023-08-06T06:02:48;158472.28;;;23.42;85.04
11888;BME280;6003;42.756;23.130;2023-08-06T06:05:15;158486.94;;;23.48;86.32
11888;BME280;6003;42.756;23.130;2023-08-06T06:07:42;158485.56;;;23.48;85.61
11888;BME280;6003;42.756;23.130;2023-08-06T06:10:09;158424.22;;;23.24;87.25
11888;BME280;6003;42.756;23.130;2023-08-06T06:12:40;158498.94;;;23.53;88.06
11888;BME280;6003;42.756;23.130;2023-08-06T06:15:07;158466.91;;;23.40;86.91
11888;BME280;6003;42.756;23.130;2023-08-06T06:17:34;158675.16;;;24.20;84.93
11888;BME280;6003;42.756;23.130;2023-08-06T06:20:01;158826.06;;;24.78;82.96
11888;BME280;6003;42.756;23.130;2023-08-06T06:22:29;158934.28;;;25.19;79.79
11888;BME280;6003;42.756;23.130;2023-08-06T06:24:56;159001.06;;;25.45;79.74
11888;BME280;6003;42.756;23.130;2023-08-06T06:27:23;158922.28;;;25.15;76.67
11888;BME280;6003;42.756;23.130;2023-08-06T06:29:51;158950.28;;;25.26;74.16
11888;BME280;6003;42.756;23.130;2023-08-06T06:32:20;159109.31;;;25.86;76.78
11888;BME280;6003;42.756;23.130;2023-08-06T06:34:47;159267.03;;;26.47;73.51
11888;BME280;6003;42.756;23.130;2023-08-06T06:37:13;159439.53;;;27.13;71.17
11888;BME280;6003;42.756;23.130;2023-08-06T06:39:40;159277.78;;;26.51;72.42
11888;BME280;6003;42.756;23.130;2023-08-06T06:42:07;159153.41;;;26.03;74.00
11888;BME280;6003;42.756;23.130;2023-08-06T06:44:34;159105.34;;;25.85;74.32
11888;BME280;6003;42.756;23.130;2023-08-06T06:47:02;159224.28;;;26.30;73.89
11888;BME280;6003;42.756;23.130;2023-08-06T06:49:29;159325.91;;;26.69;71.41
11888;BME280;6003;42.756;23.130;2023-08-06T06:51:56;159301.84;;;26.60;70.14
11888;BME280;6003;42.756;23.130;2023-08-06T06:54:23;159196.19;;;26.20;71.01
11888;BME280;6003;42.756;23.130;2023-08-06T06:56:50;159148.13;;;26.01;70.32
11888;BME280;6003;42.756;23.130;2023-08-06T06:59:16;159073.22;;;25.73;71.46
11888;BME280;6003;42.756;23.130;2023-08-06T07:01:43;159136.06;;;25.97;70.17
11888;BME280;6003;42.756;23.130;2023-08-06T07:04:11;159144.06;;;26.00;69.40
11888;BME280;6003;42.756;23.130;2023-08-06T07:06:38;159177.50;;;26.13;70.66
11888;BME280;6003;42.756;23.130;2023-08-06T07:09:05;159289.78;;;26.55;69.19
11888;BME280;6003;42.756;23.130;2023-08-06T07:11:32;159297.88;;;26.59;71.31
11888;BME280;6003;42.756;23.130;2023-08-06T07:13:59;159329.94;;;26.71;70.01
11888;BME280;6003;42.756;23.130;2023-08-06T07:16:26;159316.56;;;26.66;69.27
11888;BME280;6003;42.756;23.130;2023-08-06T07:18:54;159148.13;;;26.01;68.84
11888;BME280;6003;42.756;23.130;2023-08-06T07:21:22;158979.69;;;25.37;71.13
11888;BME280;6003;42.756;23.130;2023-08-06T07:23:49;158983.72;;;25.38;74.20
11888;BME280;6003;42.756;23.130;2023-08-06T07:26:16;158962.34;;;25.30;72.96
11888;BME280;6003;42.756;23.130;2023-08-06T07:28:43;158836.72;;;24.82;74.14
11888;BME280;6003;42.756;23.130;2023-08-06T07:31:10;158733.97;;;24.43;74.91
11888;BME280;6003;42.756;23.130;2023-08-06T07:33:37;158600.41;;;23.92;75.53
11888;BME280;6003;42.756;23.130;2023-08-06T07:36:11;158581.72;;;23.84;75.84
11888;BME280;6003;42.756;23.130;2023-08-06T07:38:39;158608.41;;;23.95;77.27
11888;BME280;6003;42.756;23.130;2023-08-06T07:41:06;158599.09;;;23.91;75.47
11888;BME280;6003;42.756;23.130;2023-08-06T07:43:33;158693.81;;;24.27;77.28
11888;BME280;6003;42.756;23.130;2023-08-06T07:46:01;158720.53;;;24.38;75.02
11888;BME280;6003;42.756;23.130;2023-08-06T07:48:28;158782.00;;;24.61;78.97
11888;BME280;6003;42.756;23.130;2023-08-06T07:50:55;158851.41;;;24.88;77.68
11888;BME280;6003;42.756;23.130;2023-08-06T07:53:22;158887.50;;;25.02;75.01
11888;BME280;6003;42.756;23.130;2023-08-06T07:55:54;158977.03;;;25.36;77.56
11888;BME280;6003;42.756;23.130;2023-08-06T07:58:21;158962.34;;;25.30;71.38
11888;BME280;6003;42.756;23.130;2023-08-06T08:00:48;158939.63;;;25.21;72.09
11888;BME280;6003;42.756;23.130;2023-08-06T08:03:15;158780.69;;;24.61;71.06
11888;BME280;6003;42.756;23.130;2023-08-06T08:05:43;158806.03;;;24.70;72.00
11888;BME280;6003;42.756;23.130;2023-08-06T08:08:10;158896.81;;;25.05;73.50
11888;BME280;6003;42.756;23.130;2023-08-06T08:10:38;158936.97;;;25.20;71.79
11888;BME280;6003;42.756;23.130;2023-08-06T08:13:06;159041.13;;;25.60;71.65
11888;BME280;6003;42.756;23.130;2023-08-06T08:15:34;159015.75;;;25.51;70.58
11888;BME280;6003;42.756;23.130;2023-08-06T08:18:01;159006.41;;;25.47;70.83
11888;BME280;6003;42.756;23.130;2023-08-06T08:20:28;159022.44;;;25.53;70.89
11888;BME280;6003;42.756;23.130;2023-08-06T08:22:58;158999.75;;;25.44;70.82
11888;BME280;6003;42.756;23.130;2023-08-06T08:25:25;158934.28;;;25.19;71.27
11888;BME280;6003;42.756;23.130;2023-08-06T08:27:53;158979.69;;;25.37;71.10
11888;BME280;6003;42.756;23.130;2023-08-06T08:30:21;159018.41;;;25.52;70.82
11888;BME280;6003;42.756;23.130;2023-08-06T08:32:50;158977.03;;;25.36;68.79
11888;BME280;6003;42.756;23.130;2023-08-06T08:35:17;158995.72;;;25.43;70.19
11888;BME280;6003;42.756;23.130;2023-08-06T08:37:44;159009.06;;;25.48;70.26
11888;BME280;6003;42.756;23.130;2023-08-06T08:40:11;159050.50;;;25.64;73.33
11888;BME280;6003;42.756;23.130;2023-08-06T08:42:37;159128.03;;;25.94;70.80
11888;BME280;6003;42.756;23.130;2023-08-06T08:45:08;159185.53;;;26.16;66.92
11888;BME280;6003;42.756;23.130;2023-08-06T08:47:40;159196.19;;;26.20;66.43
11888;BME280;6003;42.756;23.130;2023-08-06T08:50:08;159166.78;;;26.08;66.54
11888;BME280;6003;42.756;23.130;2023-08-06T08:52:35;159198.84;;;26.21;66.67
11888;BME280;6003;42.756;23.130;2023-08-06T08:55:03;159153.41;;;26.03;64.82
11888;BME280;6003;42.756;23.130;2023-08-06T08:57:30;159148.13;;;26.01;64.40
11888;BME280;6003;42.756;23.130;2023-08-06T08:59:57;159194.88;;;26.19;65.62
11888;BME280;6003;42.756;23.130;2023-08-06T09:02:25;159181.50;;;26.14;66.05
11888;BME280;6003;42.756;23.130;2023-08-06T09:04:58;159244.28;;;26.38;67.51
11888;BME280;6003;42.756;23.130;2023-08-06T09:07:30;159287.13;;;26.54;63.93
11888;BME280;6003;42.756;23.130;2023-08-06T09:09:59;159359.34;;;26.82;62.48
11888;BME280;6003;42.756;23.130;2023-08-06T09:12:29;159363.34;;;26.84;61.20
11888;BME280;6003;42.756;23.130;2023-08-06T09:14:56;159309.88;;;26.63;62.45
11888;BME280;6003;42.756;23.130;2023-08-06T09:17:22;159307.22;;;26.62;63.54
11888;BME280;6003;42.756;23.130;2023-08-06T09:19:49;159300.53;;;26.60;62.17
11888;BME280;6003;42.756;23.130;2023-08-06T09:22:18;159255.03;;;26.42;62.44
11888;BME280;6003;42.756;23.130;2023-08-06T09:24:44;159304.50;;;26.61;65.20
11888;BME280;6003;42.756;23.130;2023-08-06T09:27:12;159289.78;;;26.55;59.65
11888;BME280;6003;42.756;23.130;2023-08-06T09:29:43;159292.50;;;26.57;62.77
11888;BME280;6003;42.756;23.130;2023-08-06T09:32:10;159304.50;;;26.61;61.39
11888;BME280;6003;42.756;23.130;2023-08-06T09:34:39;159233.63;;;26.34;61.89
11888;BME280;6003;42.756;23.130;2023-08-06T09:37:08;159204.22;;;26.23;62.64
11888;BME280;6003;42.756;23.130;2023-08-06T09:39:39;159169.44;;;26.09;60.94
11888;BME280;6003;42.756;23.130;2023-08-06T09:42:06;159158.78;;;26.05;61.70
11888;BME280;6003;42.756;23.130;2023-08-06T09:44:33;159192.22;;;26.18;62.58
11888;BME280;6003;42.756;23.130;2023-08-06T09:47:02;159204.22;;;26.23;61.96
11888;BME280;6003;42.756;23.130;2023-08-06T09:49:41;159220.25;;;26.29;61.74
11888;BME280;6003;42.756;23.130;2023-08-06T09:52:11;159241.66;;;26.37;62.06
11888;BME280;6003;42.756;23.130;2023-08-06T09:54:39;159252.31;;;26.41;61.52
11888;BME280;6003;42.756;23.130;2023-08-06T09:57:07;159234.97;;;26.34;62.44
11888;BME280;6003;42.756;23.130;2023-08-06T09:59:35;159257.69;;;26.43;62.27
11888;BME280;6003;42.756;23.130;2023-08-06T10:02:07;159292.50;;;26.57;61.68
11888;BME280;6003;42.756;23.130;2023-08-06T10:04:39;159255.03;;;26.42;61.78
11888;BME280;6003;42.756;23.130;2023-08-06T10:07:06;159214.94;;;26.27;62.39
11888;BME280;6003;42.756;23.130;2023-08-06T10:09:33;159272.38;;;26.49;63.03
11888;BME280;6003;42.756;23.130;2023-08-06T10:12:01;159237.66;;;26.36;61.73
11888;BME280;6003;42.756;23.130;2023-08-06T10:14:30;159228.25;;;26.32;62.01
11888;BME280;6003;42.756;23.130;2023-08-06T10:16:59;159198.84;;;26.21;60.85
11888;BME280;6003;42.756;23.130;2023-08-06T10:19:27;159166.78;;;26.08;60.27
11888;BME280;6003;42.756;23.130;2023-08-06T10:22:11;159116.00;;;25.89;61.69
11888;BME280;6003;42.756;23.130;2023-08-06T10:24:52;159074.56;;;25.73;61.25
11888;BME280;6003;42.756;23.130;2023-08-06T10:27:21;159029.13;;;25.56;61.93
11888;BME280;6003;42.756;23.130;2023-08-06T10:29:48;158953.00;;;25.27;61.76
11888;BME280;6003;42.756;23.130;2023-08-06T10:32:15;158920.91;;;25.14;62.27
11888;BME280;6003;42.756;23.130;2023-08-06T10:34:56;158926.25;;;25.16;62.53
11888;BME280;6003;42.756;23.130;2023-08-06T10:37:24;158838.06;;;24.83;62.42
11888;BME280;6003;42.756;23.130;2023-08-06T10:39:51;158818.06;;;24.75;63.16
11888;BME280;6003;42.756;23.130;2023-08-06T10:42:27;158769.97;;;24.57;64.03
11888;BME280;6003;42.756;23.130;2023-08-06T10:45:14;158788.69;;;24.64;64.91
11888;BME280;6003;42.756;23.130;2023-08-06T10:47:41;158733.97;;;24.43;63.21
11888;BME280;6003;42.756;23.130;2023-08-06T10:50:11;158759.31;;;24.52;64.44
11888;BME280;6003;42.756;23.130;2023-08-06T10:52:38;158787.34;;;24.63;65.32
11888;BME280;6003;42.756;23.130;2023-08-06T10:55:06;158880.81;;;24.99;66.31
11888;BME280;6003;42.756;23.130;2023-08-06T10:57:35;158896.81;;;25.05;65.25
11888;BME280;6003;42.756;23.130;2023-08-06T11:00:04;158867.44;;;24.94;63.12
11888;BME280;6003;42.756;23.130;2023-08-06T11:02:33;158848.78;;;24.87;62.85
11888;BME280;6003;42.756;23.130;2023-08-06T11:05:05;158850.09;;;24.87;62.95
11888;BME280;6003;42.756;23.130;2023-08-06T11:07:32;158832.75;;;24.81;61.73
11888;BME280;6003;42.756;23.130;2023-08-06T11:10:02;158859.44;;;24.91;62.23
11888;BME280;6003;42.756;23.130;2023-08-06T11:12:29;158973.00;;;25.34;63.89
11888;BME280;6003;42.756;23.130;2023-08-06T11:14:57;159025.09;;;25.54;63.04
11888;BME280;6003;42.756;23.130;2023-08-06T11:17:24;159120.03;;;25.91;61.69
11888;BME280;6003;42.756;23.130;2023-08-06T11:19:52;159184.16;;;26.15;59.27
11888;BME280;6003;42.756;23.130;2023-08-06T11:22:20;159201.56;;;26.22;57.87
11888;BME280;6003;42.756;23.130;2023-08-06T11:24:48;159153.41;;;26.03;59.41
11888;BME280;6003;42.756;23.130;2023-08-06T11:27:16;158973.00;;;25.34;59.12
11888;BME280;6003;42.756;23.130;2023-08-06T11:29:44;158943.59;;;25.23;60.84
11888;BME280;6003;42.756;23.130;2023-08-06T11:32:12;159035.81;;;25.58;61.36
11888;BME280;6003;42.756;23.130;2023-08-06T11:34:39;159140.09;;;25.98;57.15
11888;BME280;6003;42.756;23.130;2023-08-06T11:37:07;159173.47;;;26.11;57.65
11888;BME280;6003;42.756;23.130;2023-08-06T11:39:34;159176.13;;;26.12;57.41
11888;BME280;6003;42.756;23.130;2023-08-06T11:42:03;159141.41;;;25.99;57.49
11888;BME280;6003;42.756;23.130;2023-08-06T11:44:31;159133.41;;;25.96;59.29
11888;BME280;6003;42.756;23.130;2023-08-06T11:46:59;159121.38;;;25.91;59.97
11888;BME280;6003;42.756;23.130;2023-08-06T11:49:42;159079.91;;;25.75;58.26
11888;BME280;6003;42.756;23.130;2023-08-06T11:52:13;159038.47;;;25.59;58.89
11888;BME280;6003;42.756;23.130;2023-08-06T11:54:40;159059.84;;;25.67;58.35
11888;BME280;6003;42.756;23.130;2023-08-06T11:57:08;159128.03;;;25.94;56.97
11888;BME280;6003;42.756;23.130;2023-08-06T11:59:35;159177.50;;;26.13;57.24
11888;BME280;6003;42.756;23.130;2023-08-06T12:02:03;159202.88;;;26.22;59.50
11888;BME280;6003;42.756;23.130;2023-08-06T12:04:31;159239.00;;;26.36;56.32
11888;BME280;6003;42.756;23.130;2023-08-06T12:07:06;159190.84;;;26.18;57.38
11888;BME280;6003;42.756;23.130;2023-08-06T12:09:34;159180.16;;;26.14;56.61
11888;BME280;6003;42.756;23.130;2023-08-06T12:12:02;159253.69;;;26.42;61.29
11888;BME280;6003;42.756;23.130;2023-08-06T12:14:29;159255.03;;;26.42;57.85
11888;BME280;6003;42.756;23.130;2023-08-06T12:16:56;159177.50;;;26.13;58.29
11888;BME280;6003;42.756;23.130;2023-08-06T12:19:23;159137.41;;;25.97;58.87
11888;BME280;6003;42.756;23.130;2023-08-06T12:21:50;159130.69;;;25.95;58.46
11888;BME280;6003;42.756;23.130;2023-08-06T12:24:18;159075.88;;;25.74;57.62
11888;BME280;6003;42.756;23.130;2023-08-06T12:26:45;159091.91;;;25.80;57.64
11888;BME280;6003;42.756;23.130;2023-08-06T12:29:12;159085.22;;;25.77;58.84
11888;BME280;6003;42.756;23.130;2023-08-06T12:31:38;159137.41;;;25.97;59.40
11888;BME280;6003;42.756;23.130;2023-08-06T12:34:05;159118.72;;;25.90;58.81
11888;BME280;6003;42.756;23.130;2023-08-06T12:36:32;159142.75;;;25.99;57.94
11888;BME280;6003;42.756;23.130;2023-08-06T12:38:59;159121.38;;;25.91;57.59
11888;BME280;6003;42.756;23.130;2023-08-06T12:41:27;159093.25;;;25.80;57.63
11888;BME280;6003;42.756;23.130;2023-08-06T12:43:54;159161.44;;;26.06;58.66
11888;BME280;6003;42.756;23.130;2023-08-06T12:46:21;159218.91;;;26.28;59.71
11888;BME280;6003;42.756;23.130;2023-08-06T12:48:47;159299.19;;;26.59;58.46